createdAt,value
2019-05-01T00:01:31.665Z,30.45
2019-05-01T00:04:30.140Z,32.28
2019-05-01T00:07:01.805Z,33.38
2019-05-01T00:09:32.135Z,34.40
2019-05-01T00:12:01.709Z,32.67
2019-05-01T00:14:33.050Z,34.65
2019-05-01T00:17:02.710Z,33.67
2019-05-01T00:19:33.029Z,32.75
2019-05-01T00:22:02.469Z,33.42
2019-05-01T00:24:32.144Z,32.83
2019-05-01T00:27:02.603Z,31.75
2019-05-01T00:29:31.558Z,32.67
2019-05-01T00:32:01.048Z,33.25
2019-05-01T00:34:30.874Z,32.23
2019-05-01T00:37:01.330Z,31.62
2019-05-01T00:39:31.566Z,34.53
2019-05-01T00:42:01.495Z,33.42
2019-05-01T00:44:31.553Z,35.52
2019-05-01T00:47:02.582Z,34.85
2019-05-01T00:49:31.563Z,35.35
2019-05-01T00:52:01.583Z,33.13
2019-05-01T00:54:32.709Z,33.73
2019-05-01T01:05:12.546Z,31.95
2019-05-01T01:07:41.499Z,32.55
2019-05-01T01:10:10.736Z,32.35
2019-05-01T01:12:41.171Z,32.10
2019-05-01T01:15:10.722Z,32.38
2019-05-01T01:17:39.763Z,33.28
2019-05-01T01:22:38.044Z,31.77
2019-05-01T01:25:07.622Z,32.10
2019-05-01T01:30:25.727Z,32.73
2019-05-01T01:35:22.894Z,31.02
2019-05-01T01:37:51.753Z,32.28
2019-05-01T01:40:20.747Z,32.00
2019-05-01T01:42:51.932Z,32.17
2019-05-01T01:45:38.557Z,32.78
2019-05-01T01:48:09.168Z,30.05
2019-05-01T01:50:41.414Z,32.65
2019-05-01T01:53:15.832Z,32.20
2019-05-01T01:55:46.560Z,33.55
2019-05-01T01:58:19.009Z,33.13
2019-05-01T02:01:10.647Z,34.75
2019-05-01T02:03:42.618Z,34.40
2019-05-01T02:06:12.554Z,34.38
2019-05-01T02:08:41.923Z,34.27
2019-05-01T02:11:11.464Z,33.60
2019-05-01T02:13:40.825Z,33.18
2019-05-01T02:16:09.956Z,33.23
2019-05-01T02:18:39.014Z,32.23
2019-05-01T02:21:08.047Z,32.70
2019-05-01T02:23:37.144Z,32.42
2019-05-01T02:26:07.897Z,32.23
2019-05-01T02:28:46.473Z,30.70
2019-05-01T02:31:41.394Z,31.73
2019-05-01T02:34:11.172Z,31.02
2019-05-01T02:36:40.998Z,30.95
2019-05-01T02:39:09.978Z,33.08
2019-05-01T02:41:42.979Z,32.38
2019-05-01T02:44:31.300Z,31.48
2019-05-01T02:47:06.301Z,31.68
2019-05-01T02:49:49.726Z,31.85
2019-05-01T02:54:50.581Z,31.70
2019-05-01T02:57:23.910Z,31.75
2019-05-01T02:59:55.723Z,31.90
2019-05-01T03:04:57.899Z,31.23
2019-05-01T03:07:32.488Z,31.10
2019-05-01T03:10:08.544Z,30.45
2019-05-01T03:12:40.968Z,30.75
2019-05-01T03:15:12.675Z,30.97
2019-05-01T03:17:49.919Z,30.90
2019-05-01T03:20:41.891Z,29.25
2019-05-01T03:23:18.502Z,30.00
2019-05-01T03:25:48.543Z,29.72
2019-05-01T03:28:17.701Z,30.62
2019-05-01T03:33:15.474Z,31.68
2019-05-01T03:35:45.108Z,30.48
2019-05-01T03:38:14.050Z,29.65
2019-05-01T03:40:43.115Z,31.17
2019-05-01T03:43:13.413Z,30.62
2019-05-01T03:45:43.422Z,31.62
2019-05-01T03:48:12.987Z,31.37
2019-05-01T03:50:46.230Z,30.10
2019-05-01T03:53:14.068Z,31.93
2019-05-01T03:55:43.405Z,32.03
2019-05-01T03:58:12.625Z,31.75
2019-05-01T04:01:01.400Z,30.88
2019-05-01T04:03:35.574Z,30.57
2019-05-01T04:06:04.811Z,31.12
2019-05-01T04:08:34.294Z,30.80
2019-05-01T04:11:04.518Z,30.27
2019-05-01T04:13:34.280Z,31.15
2019-05-01T04:16:04.556Z,30.10
2019-05-01T04:18:34.398Z,30.32
2019-05-01T04:21:04.068Z,30.45
2019-05-01T04:23:33.895Z,30.65
2019-05-01T04:26:03.705Z,30.10
2019-05-01T04:31:51.482Z,29.87
2019-05-01T04:34:50.942Z,29.15
2019-05-01T04:37:22.281Z,29.87
2019-05-01T04:39:51.680Z,30.35
2019-05-01T04:42:22.064Z,30.50
2019-05-01T04:44:51.417Z,30.85
2019-05-01T04:47:20.427Z,31.23
2019-05-01T04:49:49.893Z,30.35
2019-05-01T04:52:19.157Z,30.37
2019-05-01T04:54:48.124Z,28.95
2019-05-01T04:57:17.520Z,24.85
2019-05-01T04:59:47.582Z,24.25
2019-05-01T05:02:23.460Z,22.67
2019-05-01T05:04:53.542Z,21.52
2019-05-01T05:09:51.529Z,19.65
2019-05-01T05:12:27.521Z,18.17
2019-05-01T05:15:00.981Z,19.05
2019-05-01T05:17:31.578Z,17.60
2019-05-01T05:20:01.662Z,17.90
2019-05-01T05:22:32.047Z,17.10
2019-05-01T05:25:02.152Z,16.93
2019-05-01T05:27:32.871Z,16.42
2019-05-01T05:30:04.553Z,16.67
2019-05-01T05:32:37.581Z,16.42
2019-05-01T05:35:08.755Z,16.45
2019-05-01T05:38:01.065Z,15.75
2019-05-01T05:40:32.806Z,16.05
2019-05-01T05:45:32.979Z,16.67
2019-05-01T05:48:02.590Z,16.12
2019-05-01T05:50:41.993Z,15.53
2019-05-01T05:53:17.306Z,16.60
2019-05-01T05:55:52.535Z,15.68
2019-05-01T05:58:36.889Z,16.02
2019-05-01T06:01:25.066Z,14.58
2019-05-01T06:04:26.562Z,16.55
2019-05-01T06:07:25.833Z,16.60
2019-05-01T06:10:27.920Z,16.42
2019-05-01T06:13:21.957Z,15.63
2019-05-01T06:19:01.146Z,15.25
2019-05-01T06:21:40.397Z,16.93
2019-05-01T06:24:18.922Z,15.70
2019-05-01T06:26:48.416Z,16.77
2019-05-01T06:31:45.837Z,17.07
2019-05-01T06:34:15.087Z,15.08
2019-05-01T06:36:48.933Z,14.95
2019-05-01T06:39:15.140Z,16.15
2019-05-01T06:41:44.733Z,15.23
2019-05-01T06:44:44.488Z,14.90
2019-05-01T06:47:38.157Z,16.00
2019-05-01T06:50:15.841Z,15.30
2019-05-01T06:52:45.579Z,16.10
2019-05-01T06:57:45.476Z,16.05
2019-05-01T07:00:16.795Z,15.90
2019-05-01T07:02:50.139Z,14.95
2019-05-01T07:05:21.836Z,14.15
2019-05-01T07:07:54.979Z,14.78
2019-05-01T07:10:31.435Z,14.13
2019-05-01T07:15:29.958Z,15.00
2019-05-01T07:18:00.139Z,13.75
2019-05-01T07:20:51.609Z,13.00
2019-05-01T07:23:22.350Z,12.65
2019-05-01T07:25:51.604Z,15.55
2019-05-01T07:28:21.985Z,14.68
2019-05-01T07:31:05.046Z,13.88
2019-05-01T07:33:35.437Z,15.83
2019-05-01T07:36:06.929Z,14.25
2019-05-01T07:38:38.747Z,14.00
2019-05-01T07:41:09.020Z,14.18
2019-05-01T07:43:48.918Z,14.45
2019-05-01T07:46:29.173Z,13.70
2019-05-01T07:48:59.097Z,14.33
2019-05-01T07:51:28.113Z,15.60
2019-05-01T07:53:59.144Z,14.65
2019-05-01T07:56:32.152Z,14.70
2019-05-01T07:59:02.721Z,13.20
2019-05-01T08:02:09.067Z,16.12
2019-05-01T08:04:37.971Z,11.53
2019-05-01T08:07:06.998Z,13.00
2019-05-01T08:09:36.053Z,14.25
2019-05-01T08:12:05.419Z,14.98
2019-05-01T08:14:35.410Z,14.98
2019-05-01T08:17:05.444Z,13.30
2019-05-01T08:19:54.659Z,14.70
2019-05-01T08:24:58.832Z,15.50
2019-05-01T08:27:37.990Z,15.35
2019-05-01T08:30:26.993Z,15.95
2019-05-01T08:33:18.551Z,16.48
2019-05-01T08:35:48.104Z,13.38
2019-05-01T08:38:17.033Z,17.02
2019-05-01T08:40:50.684Z,17.55
2019-05-01T08:43:19.593Z,18.23
2019-05-01T08:46:07.122Z,16.40
2019-05-01T08:48:43.589Z,15.38
2019-05-01T08:51:12.933Z,12.40
2019-05-01T08:53:42.004Z,13.45
2019-05-01T08:56:11.042Z,16.82
2019-05-01T08:58:40.296Z,14.35
2019-05-01T09:01:10.857Z,13.50
2019-05-01T09:03:41.492Z,13.15
2019-05-01T09:06:10.669Z,14.73
2019-05-01T09:11:08.299Z,14.93
2019-05-01T09:13:37.063Z,15.18
2019-05-01T09:16:05.968Z,13.83
2019-05-01T09:18:35.769Z,13.65
2019-05-01T09:21:04.761Z,11.30
2019-05-01T09:23:34.572Z,12.78
2019-05-01T09:26:24.150Z,12.58
2019-05-01T09:28:57.571Z,14.55
2019-05-01T09:31:27.865Z,12.35
2019-05-01T09:33:56.918Z,11.38
2019-05-01T09:36:26.000Z,10.53
2019-05-01T09:41:43.170Z,9.78
2019-05-01T09:44:12.573Z,9.85
2019-05-01T09:46:41.690Z,10.20
2019-05-01T09:52:18.892Z,8.45
2019-05-01T09:55:17.835Z,9.05
2019-05-01T09:57:45.739Z,8.65
2019-05-01T10:00:22.445Z,8.45
2019-05-01T10:02:51.504Z,10.55
2019-05-01T10:07:53.945Z,10.75
2019-05-01T10:10:24.776Z,11.15
2019-05-01T10:12:55.059Z,10.98
2019-05-01T10:15:23.982Z,10.28
2019-05-01T10:17:53.038Z,10.40
2019-05-01T10:20:22.060Z,10.03
2019-05-01T10:22:51.427Z,9.58
2019-05-01T10:25:20.932Z,9.15
2019-05-01T10:27:59.525Z,9.03
2019-05-01T10:31:00.309Z,10.23
2019-05-01T10:33:35.624Z,9.55
2019-05-01T10:38:44.945Z,11.55
2019-05-01T10:41:14.915Z,9.25
2019-05-01T10:43:44.445Z,9.88
2019-05-01T10:46:13.525Z,10.75
2019-05-01T10:48:42.469Z,10.63
2019-05-01T10:51:11.615Z,11.05
2019-05-01T10:53:43.147Z,10.20
2019-05-01T10:56:11.509Z,10.23
2019-05-01T10:58:40.565Z,11.68
2019-05-01T11:01:16.935Z,11.60
2019-05-01T11:03:45.981Z,10.00
2019-05-01T11:06:15.298Z,9.98
2019-05-01T11:08:44.395Z,8.85
2019-05-01T11:11:14.586Z,9.10
2019-05-01T11:13:43.809Z,9.38
2019-05-01T11:16:12.776Z,9.53
2019-05-01T11:18:41.926Z,8.93
2019-05-01T11:21:10.965Z,9.30
2019-05-01T11:23:40.166Z,10.40
2019-05-01T11:26:09.451Z,8.70
2019-05-01T11:28:38.415Z,9.63
2019-05-01T11:31:09.314Z,8.20
2019-05-01T11:34:03.820Z,11.25
2019-05-01T11:37:10.927Z,9.05
2019-05-01T11:39:44.588Z,8.15
2019-05-01T11:44:42.960Z,8.43
2019-05-01T11:47:11.971Z,8.18
2019-05-01T11:49:41.114Z,8.78
2019-05-01T11:52:10.144Z,7.80
2019-05-01T11:54:39.095Z,8.05
2019-05-01T11:57:08.039Z,9.38
2019-05-01T11:59:36.958Z,8.30
2019-05-01T12:02:05.940Z,8.75
2019-05-01T12:04:35.089Z,8.00
2019-05-01T12:07:04.568Z,8.25
2019-05-01T12:12:05.581Z,7.95
2019-05-01T12:14:34.592Z,8.50
2019-05-01T12:17:24.780Z,7.80
2019-05-01T12:19:53.702Z,7.87
2019-05-01T12:24:51.072Z,7.17
2019-05-01T12:27:20.552Z,8.45
2019-05-01T12:29:49.553Z,8.25
2019-05-01T12:32:18.693Z,6.95
2019-05-01T12:34:48.746Z,9.00
2019-05-01T12:40:18.566Z,6.40
2019-05-01T12:42:47.821Z,6.00
2019-05-01T12:45:19.604Z,6.53
2019-05-01T12:48:07.293Z,6.22
2019-05-01T12:50:36.132Z,6.05
2019-05-01T12:53:20.905Z,5.72
2019-05-01T12:56:07.660Z,5.95
2019-05-01T12:58:38.003Z,6.30
2019-05-01T13:01:07.395Z,6.53
2019-05-01T13:03:37.462Z,5.95
2019-05-01T13:06:09.185Z,6.80
2019-05-01T13:08:38.566Z,6.03
2019-05-01T13:11:08.134Z,5.70
2019-05-01T13:13:38.036Z,5.10
2019-05-01T13:16:07.753Z,5.12
2019-05-01T13:21:06.998Z,6.00
2019-05-01T13:23:36.655Z,5.40
2019-05-01T13:29:17.829Z,5.17
2019-05-01T13:31:57.431Z,5.95
2019-05-01T13:34:26.486Z,5.53
2019-05-01T13:37:02.772Z,5.35
2019-05-01T13:39:26.414Z,5.45
2019-05-01T13:41:55.442Z,5.67
2019-05-01T13:44:24.433Z,5.30
2019-05-01T13:46:53.406Z,4.70
2019-05-01T13:49:22.442Z,4.42
2019-05-01T13:51:51.567Z,4.78
2019-05-01T13:54:20.602Z,3.98
2019-05-01T13:56:50.155Z,4.22
2019-05-01T13:59:19.426Z,4.17
2019-05-01T14:01:48.446Z,4.25
2019-05-01T14:04:21.587Z,4.62
2019-05-01T14:06:50.305Z,4.30
2019-05-01T14:09:29.056Z,4.78
2019-05-01T14:11:58.120Z,4.80
2019-05-01T14:14:26.951Z,5.30
2019-05-01T14:16:55.950Z,4.45
2019-05-01T14:19:24.911Z,4.40
2019-05-01T14:22:02.633Z,4.53
2019-05-01T14:24:39.950Z,4.92
2019-05-01T14:27:10.095Z,4.12
2019-05-01T14:29:38.967Z,4.10
2019-05-01T14:32:08.288Z,4.78
2019-05-01T14:34:37.944Z,4.20
2019-05-01T14:37:06.959Z,3.98
2019-05-01T14:39:36.595Z,4.37
2019-05-01T14:42:06.717Z,4.90
2019-05-01T14:47:07.628Z,4.45
2019-05-01T14:49:37.579Z,4.62
2019-05-01T14:52:06.653Z,4.30
2019-05-01T14:57:07.741Z,4.47
2019-05-01T15:04:35.746Z,4.00
2019-05-01T15:09:33.115Z,4.20
2019-05-01T15:12:03.858Z,4.30
2019-05-01T15:14:53.226Z,4.47
2019-05-01T15:20:00.987Z,4.15
2019-05-01T15:22:31.679Z,4.20
2019-05-01T15:27:28.989Z,4.05
2019-05-01T15:29:58.062Z,4.40
2019-05-01T15:32:27.108Z,4.45
2019-05-01T15:34:56.130Z,4.03
2019-05-01T15:37:25.308Z,3.65
2019-05-01T15:40:18.088Z,4.10
2019-05-01T15:43:06.766Z,4.62
2019-05-01T15:48:04.439Z,3.58
2019-05-01T15:50:33.409Z,3.90
2019-05-01T15:53:02.480Z,4.03
2019-05-01T15:55:31.448Z,3.60
2019-05-01T15:58:00.552Z,4.20
2019-05-01T16:00:29.581Z,4.45
2019-05-01T16:05:27.138Z,3.58
2019-05-01T16:08:08.985Z,4.30
2019-05-01T16:10:32.721Z,4.10
2019-05-01T16:13:02.732Z,3.98
2019-05-01T16:15:33.452Z,4.28
2019-05-01T16:18:02.785Z,3.85
2019-05-01T16:20:32.070Z,4.05
2019-05-01T16:23:01.166Z,4.08
2019-05-01T16:25:30.415Z,4.30
2019-05-01T16:27:59.475Z,4.70
2019-05-01T16:30:28.516Z,4.17
2019-05-01T16:32:57.776Z,4.67
2019-05-01T16:35:26.726Z,4.55
2019-05-01T16:37:58.605Z,3.98
2019-05-01T16:43:15.906Z,4.20
2019-05-01T16:45:44.946Z,4.00
2019-05-01T16:49:51.521Z,4.15
2019-05-01T16:52:24.555Z,4.08
2019-05-01T16:54:59.352Z,3.83
2019-05-01T16:57:25.088Z,4.40
2019-05-01T16:59:54.410Z,4.20
2019-05-01T17:10:09.725Z,4.08
2019-05-01T17:15:16.053Z,4.45
2019-05-01T17:17:45.298Z,4.37
2019-05-01T17:20:15.300Z,3.95
2019-05-01T17:22:46.259Z,4.58
2019-05-01T17:25:15.453Z,4.20
2019-05-01T17:27:44.776Z,4.15
2019-05-01T17:30:17.291Z,3.95
2019-05-01T17:32:46.606Z,4.60
2019-05-01T17:35:17.523Z,4.60
2019-05-01T17:37:46.954Z,3.95
2019-05-01T17:40:16.494Z,4.10
2019-05-01T17:42:45.704Z,3.85
2019-05-01T17:45:15.108Z,3.65
2019-05-01T17:47:44.140Z,4.33
2019-05-01T17:50:16.513Z,3.83
2019-05-01T17:52:44.306Z,4.40
2019-05-01T17:55:13.754Z,4.22
2019-05-01T18:00:36.836Z,3.87
2019-05-01T18:03:26.102Z,4.10
2019-05-01T18:06:19.854Z,3.98
2019-05-01T18:08:48.742Z,4.67
2019-05-01T18:13:47.313Z,5.50
2019-05-01T18:16:16.507Z,4.50
2019-05-01T18:18:45.909Z,4.15
2019-05-01T18:21:17.759Z,4.20
2019-05-01T18:24:18.905Z,3.77
2019-05-01T18:27:19.012Z,4.05
2019-05-01T18:29:48.367Z,4.22
2019-05-01T18:37:43.835Z,4.05
2019-05-01T18:40:26.099Z,4.42
2019-05-01T18:42:55.750Z,4.58
2019-05-01T18:45:53.610Z,4.10
2019-05-01T18:50:54.952Z,4.28
2019-05-01T18:53:23.776Z,4.22
2019-05-01T18:55:52.898Z,4.78
2019-05-01T18:58:22.159Z,4.70
2019-05-01T19:00:54.330Z,5.20
2019-05-01T19:03:23.499Z,5.65
2019-05-01T19:05:52.600Z,5.22
2019-05-01T19:10:50.099Z,5.28
2019-05-01T19:13:19.443Z,5.62
2019-05-01T19:15:51.505Z,5.17
2019-05-01T19:18:20.457Z,5.53
2019-05-01T19:20:59.243Z,5.40
2019-05-01T19:23:22.240Z,5.67
2019-05-01T19:28:20.656Z,5.53
2019-05-01T19:30:49.984Z,5.33
2019-05-01T19:33:18.984Z,5.30
2019-05-01T19:35:48.951Z,5.22
2019-05-01T19:38:18.612Z,5.62
2019-05-01T19:40:47.620Z,5.53
2019-05-01T19:43:17.039Z,5.70
2019-05-01T19:45:46.471Z,6.50
2019-05-01T19:48:16.225Z,6.12
2019-05-01T19:50:48.365Z,5.95
2019-05-01T19:53:18.660Z,6.00
2019-05-01T19:58:19.165Z,5.62
2019-05-01T20:01:06.749Z,5.90
2019-05-01T20:03:39.167Z,6.28
2019-05-01T20:06:08.689Z,6.12
2019-05-01T20:08:38.504Z,6.40
2019-05-01T20:11:09.714Z,6.50
2019-05-01T20:13:39.912Z,6.85
2019-05-01T20:16:09.933Z,7.47
2019-05-01T20:18:39.521Z,7.37
2019-05-01T20:21:08.608Z,7.12
2019-05-01T20:26:09.137Z,7.47
2019-05-01T20:28:39.622Z,7.78
2019-05-01T20:33:44.137Z,7.83
2019-05-01T20:36:11.510Z,7.10
2019-05-01T20:38:41.505Z,7.85
2019-05-01T20:43:43.462Z,8.00
2019-05-01T20:48:41.554Z,8.05
2019-05-01T20:51:11.730Z,7.37
2019-05-01T20:53:42.636Z,6.92
2019-05-01T20:57:34.570Z,8.05
2019-05-01T21:00:16.673Z,7.15
2019-05-01T21:02:44.582Z,7.20
2019-05-01T21:05:25.871Z,7.70
2019-05-01T21:08:11.732Z,7.40
2019-05-01T21:11:06.088Z,7.78
2019-05-01T21:13:35.739Z,8.05
2019-05-01T21:18:33.640Z,7.25
2019-05-01T21:21:04.100Z,7.92
2019-05-01T21:23:34.158Z,7.50
2019-05-01T21:26:04.325Z,6.90
2019-05-01T21:28:34.049Z,7.65
2019-05-01T21:31:04.024Z,7.42
2019-05-01T21:33:34.064Z,7.35
2019-05-01T21:36:04.883Z,7.53
2019-05-01T21:38:34.454Z,7.30
2019-05-01T21:41:03.602Z,7.75
2019-05-01T21:43:36.650Z,7.83
2019-05-01T21:46:04.042Z,6.97
2019-05-01T21:48:33.602Z,7.50
2019-05-01T21:53:33.023Z,7.58
2019-05-01T21:56:06.192Z,7.72
2019-05-01T21:58:36.002Z,7.60
2019-05-01T22:01:06.863Z,7.65
2019-05-01T22:03:36.963Z,7.90
2019-05-01T22:06:05.946Z,8.68
2019-05-01T22:08:39.234Z,7.95
2019-05-01T22:11:06.650Z,8.05
2019-05-01T22:13:35.634Z,7.08
2019-05-01T22:19:01.843Z,7.65
2019-05-01T22:21:59.667Z,7.05
2019-05-01T22:27:18.313Z,7.75
2019-05-01T22:30:05.740Z,7.50
2019-05-01T22:35:39.063Z,7.90
2019-05-01T22:38:08.080Z,7.85
2019-05-01T22:41:05.355Z,8.25
2019-05-01T22:45:56.236Z,7.72
2019-05-01T22:48:25.445Z,8.18
2019-05-01T22:50:57.660Z,8.73
2019-05-01T22:53:26.708Z,8.58
2019-05-01T22:58:25.704Z,8.40
2019-05-01T23:03:43.471Z,8.70
2019-05-01T23:06:12.594Z,8.38
2019-05-01T23:08:42.490Z,8.20
2019-05-01T23:11:19.618Z,8.48
2019-05-01T23:13:43.565Z,9.15
2019-05-01T23:16:14.007Z,8.70
2019-05-01T23:18:47.175Z,8.28
2019-05-01T23:21:14.513Z,8.00
2019-05-01T23:23:44.783Z,7.87
2019-05-01T23:26:16.827Z,8.43
2019-05-01T23:28:44.571Z,8.33
2019-05-01T23:31:13.455Z,7.97
2019-05-01T23:33:45.620Z,8.48
2019-05-01T23:36:23.407Z,9.03
2019-05-01T23:38:44.464Z,8.85
2019-05-01T23:41:13.432Z,8.53
2019-05-01T23:43:42.579Z,8.55
2019-05-01T23:46:12.402Z,8.48
2019-05-01T23:48:42.158Z,8.60
2019-05-01T23:51:11.569Z,8.43
2019-05-01T23:53:44.127Z,9.00
2019-05-01T23:56:12.565Z,8.88
2019-05-01T23:58:42.455Z,8.35
